DW3377 Weather Reports


Display with metric or nautical units.
time (UTC)temp
F
wind
direction
speed
MPH
gust
MPH
rain 1hr
in
rain 24hr
in
rain mn
in
humidity
%
barometer
mb
20210925042705 69 149 1.0 2.0 0.00 0.00 0.00 58 1016.9
20210925042205 69 159 1.0 2.0 0.00 0.00 0.00 58 1017.0
20210925041704 69 175 1.0 3.0 0.00 0.00 0.00 58 1017.0
20210925040705 70 173 0.0 1.0 0.00 0.00 0.00 59 1017.0
20210925035705 71 171 0.0 1.0 0.00 0.00 0.00 61 1017.0
20210925035205 71 171 0.0 1.0 0.00 0.00 0.00 61 1017.0
20210925034705 71 172 1.0 1.0 0.00 0.00 0.00 61 1017.0
20210925034204 72 172 1.0 3.0 0.00 0.00 0.00 61 1017.0
20210925033705 72 167 1.0 3.0 0.00 0.00 0.00 61 1016.9
20210925033205 72 170 1.0 3.0 0.00 0.00 0.00 61 1016.9
20210925025705 73 158 1.0 6.0 0.00 0.00 0.00 59 1016.7
20210925025205 73 159 2.0 5.0 0.00 0.00 0.00 58 1016.7
20210925024206 74 177 1.0 3.0 0.00 0.00 0.00 57 1016.7
20210925023704 74 143 2.0 3.0 0.00 0.00 0.00 56 1016.6
20210925022705 74 144 2.0 5.0 0.00 0.00 0.00 56 1016.4
20210925021705 74 147 2.0 6.0 0.00 0.00 0.00 55 1016.3
20210925020705 74 150 1.0 3.0 0.00 0.00 0.00 55 1016.1
20210925020205 75 116 1.0 3.0 0.00 0.00 0.00 54 1016.1
20210925015205 75 165 2.0 3.0 0.00 0.00 0.00 54 1016.0
20210925013205 76 151 2.0 3.0 0.00 0.00 0.00 51 1015.8
20210925012705 76 155 2.0 3.0 0.00 0.00 0.00 51 1015.7
20210925012205 76 154 2.0 5.0 0.00 0.00 0.00 51 1015.7
20210925011711 76 159 1.0 3.0 0.00 0.00 0.00 50 1015.7
20210925010705 76 124 2.0 3.0 0.00 0.00 0.00 50 1015.6
20210925010205 76 148 1.0 3.0 0.00 0.00 0.00 50 1015.6
20210925005205 77 109 1.0 3.0 0.00 0.00 0.00 48 1015.6
20210925003705 78 98 1.0 2.0 0.00 0.00 0.00 46 1015.6
20210925003204 78 73 1.0 2.0 0.00 0.00 0.00 46 1015.6
20210925001205 80 76 2.0 3.0 0.00 0.00 0.00 42 1015.4
20210925000705 80 86 2.0 3.0 0.00 0.00 0.00 43 1015.4
20210925000205 80 84 2.0 3.0 0.00 0.00 0.00 41 1015.5
20210924235704 81 71 1.0 3.0 0.00 0.00 0.00 41 1015.5
20210924234704 82 74 2.0 3.0 0.00 0.00 0.00 41 1015.4
20210924234205 82 71 2.0 5.0 0.00 0.00 0.00 40 1015.4
20210924233205 82 89 2.0 3.0 0.00 0.00 0.00 40 1015.4
20210924232205 82 68 5.0 9.0 0.00 0.00 0.00 39 1015.5
20210924231704 82 84 2.0 5.0 0.00 0.00 0.00 39 1015.5
20210924230705 82 76 2.0 3.0 0.00 0.00 0.00 39 1015.5
20210924225705 82 83 2.0 3.0 0.00 0.00 0.00 39 1015.6
20210924225205 82 111 2.0 3.0 0.00 0.00 0.00 40 1015.6
20210924224705 82 157 1.0 3.0 0.00 0.00 0.00 39 1015.6
20210924223705 82 65 3.0 6.0 0.00 0.00 0.00 40 1015.6
20210924223205 83 124 2.0 5.0 0.00 0.00 0.00 39 1015.6
20210924222704 83 50 2.0 3.0 0.00 0.00 0.00 41 1015.6
20210924222205 83 84 2.0 3.0 0.00 0.00 0.00 40 1015.6
20210924221705 83 167 3.0 6.0 0.00 0.00 0.00 39 1015.6
20210924221205 83 100 2.0 6.0 0.00 0.00 0.00 40 1015.6
20210924220205 83 70 1.0 5.0 0.00 0.00 0.00 39 1015.5
20210924215204 84 99 3.0 6.0 0.00 0.00 0.00 39 1015.5
20210924214705 84 71 1.0 3.0 0.00 0.00 0.00 38 1015.5
20210924214205 84 111 0.0 2.0 0.00 0.00 0.00 38 1015.5
20210924213705 83 113 1.0 5.0 0.00 0.00 0.00 37 1015.5
20210924213205 83 98 4.0 8.0 0.00 0.00 0.00 38 1015.6
20210924212205 83 118 2.0 7.0 0.00 0.00 0.00 38 1015.6
20210924211204 83 93 2.0 6.0 0.00 0.00 0.00 38 1015.7
20210924210704 84 55 3.0 8.0 0.00 0.00 0.00 38 1015.7
20210924210205 84 54 5.0 8.0 0.00 0.00 0.00 38 1015.7
20210924205705 84 131 2.0 5.0 0.00 0.00 0.00 38 1015.8
20210924205204 84 40 2.0 7.0 0.00 0.00 0.00 38 1015.8
20210924204704 85 146 3.0 6.0 0.00 0.00 0.00 38 1015.8
20210924203705 85 159 2.0 9.0 0.00 0.00 0.00 36 1015.9
20210924203205 85 89 3.0 9.0 0.00 0.00 0.00 37 1016.0
20210924202705 86 126 3.0 8.0 0.00 0.00 0.00 36 1016.0
20210924202204 85 142 2.0 7.0 0.00 0.00 0.00 37 1016.0
20210924201206 85 79 3.0 8.0 0.00 0.00 0.00 36 1016.1
20210924200205 85 157 3.0 7.0 0.00 0.00 0.00 37 1016.1
20210924195705 85 67 2.0 5.0 0.00 0.00 0.00 36 1016.2
20210924195204 85 101 3.0 8.0 0.00 0.00 0.00 37 1016.4
20210924194704 84 105 3.0 10.0 0.00 0.00 0.00 38 1016.4
20210924194205 84 119 5.0 8.0 0.00 0.00 0.00 36 1016.5
20210924193705 84 94 1.0 3.0 0.00 0.00 0.00 38 1016.5
20210924193206 85 55 4.0 7.0 0.00 0.00 0.00 37 1016.6
20210924192705 84 93 3.0 10.0 0.00 0.00 0.00 38 1016.7
20210924191704 84 156 2.0 6.0 0.00 0.00 0.00 39 1016.8
20210924191205 84 76 3.0 9.0 0.00 0.00 0.00 39 1016.8
20210924190705 85 104 3.0 9.0 0.00 0.00 0.00 41 1016.9
20210924185705 84 90 2.0 6.0 0.00 0.00 0.00 38 1017.1
20210924184205 84 90 5.0 10.0 0.00 0.00 0.00 41 1017.2
20210924183204 83 154 2.0 8.0 0.00 0.00 0.00 42 1017.5
20210924182705 83 18 3.0 8.0 0.00 0.00 0.00 41 1017.6
20210924182205 83 89 3.0 9.0 0.00 0.00 0.00 40 1017.7
20210924181704 84 28 4.0 8.0 0.00 0.00 0.00 40 1017.8
20210924181204 83 73 3.0 6.0 0.00 0.00 0.00 45 1017.9
20210924180704 83 139 4.0 8.0 0.00 0.00 0.00 45 1017.9
20210924180205 83 32 2.0 5.0 0.00 0.00 0.00 45 1017.9
20210924175205 83 153 3.0 6.0 0.00 0.00 0.00 45 1018.1
20210924174205 83 145 5.0 13.0 0.00 0.00 0.00 45 1018.2
20210924173705 82 128 4.0 8.0 0.00 0.00 0.00 44 1018.3
20210924173205 82 103 4.0 7.0 0.00 0.00 0.00 43 1018.4
20210924172204 82 108 2.0 6.0 0.00 0.00 0.00 47 1018.5
20210924171705 82 48 4.0 7.0 0.00 0.00 0.00 48 1018.5
20210924171204 82 95 1.0 5.0 0.00 0.00 0.00 48 1018.5
20210924170705 82 111 4.0 9.0 0.00 0.00 0.00 53 1018.5
20210924170205 81 138 1.0 7.0 0.00 0.00 0.00 53 1018.6
20210924164205 80 88 2.0 3.0 0.00 0.00 0.00 55 1018.9
20210924162704 79 145 2.0 6.0 0.00 0.00 0.00 57 1019.1
20210924162204 79 60 3.0 7.0 0.00 0.00 0.00 56 1019.2
20210924161704 79 82 2.0 3.0 0.00 0.00 0.00 58 1019.1
20210924160705 79 60 1.0 3.0 0.00 0.00 0.00 59 1019.1
20210924160205 78 50 4.0 6.0 0.00 0.00 0.00 59 1019.1
20210924155705 78 85 1.0 3.0 0.00 0.00 0.00 60 1019.1
20210924155205 78 56 3.0 5.0 0.00 0.00 0.00 60 1019.0
20210924154704 77 107 3.0 6.0 0.00 0.00 0.00 60 1019.0
20210924154205 77 73 2.0 6.0 0.00 0.00 0.00 60 1019.0
20210924153705 77 54 1.0 3.0 0.00 0.00 0.00 59 1019.0
20210924153205 76 118 2.0 3.0 0.00 0.00 0.00 59 1018.9
20210924152705 76 60 2.0 3.0 0.00 0.00 0.00 60 1018.9
20210924151705 75 28 1.0 3.0 0.00 0.00 0.00 58 1018.8
20210924150705 74 64 2.0 5.0 0.00 0.00 0.00 56 1018.9
20210924150204 73 55 2.0 3.0 0.00 0.00 0.00 51 1018.9
20210924145704 73 28 0.0 3.0 0.00 0.00 0.00 48 1018.9
20210924145205 72 63 1.0 3.0 0.00 0.00 0.00 48 1018.8
20210924144704 72 98 1.0 3.0 0.00 0.00 0.00 36 1018.8
20210924144204 71 35 1.0 3.0 0.00 0.00 0.00 33 1018.7
20210924143705 71 87 2.0 3.0 0.00 0.00 0.00 30 1018.7
20210924143204 70 41 1.0 3.0 0.00 0.00 0.00 30 1018.6
20210924142705 69 68 1.0 3.0 0.00 0.00 0.00 28 1018.5
20210924142204 68 60 1.0 3.0 0.00 0.00 0.00 17 1018.5
20210924141705 67 61 1.0 3.0 0.00 0.00 0.00 14 1018.5
20210924141205 66 55 1.0 3.0 0.00 0.00 0.00 4 1018.4
20210924140204 64 64 2.0 5.0 0.00 0.00 0.00 3 1018.4
20210924135704 64 47 2.0 5.0 0.00 0.00 0.00 3 1018.4
20210924135204 63 51 2.0 3.0 0.00 0.00 0.00 3 1018.4
20210924134705 62 68 1.0 3.0 0.00 0.00 0.00 3 1018.3
20210924134205 62 70 1.0 2.0 0.00 0.00 0.00 3 1018.3
20210924133705 61 147 0.0 0.0 0.00 0.00 0.00 3 1018.2
20210924133205 61 147 0.0 0.0 0.00 0.00 0.00 3 1018.2
20210924131704 60 147 0.0 1.0 0.00 0.00 0.00 3 1018.3
20210924130204 59 147 0.0 1.0 0.00 0.00 0.00 3 1018.2
20210924125204 59 147 0.0 1.0 0.00 0.00 0.00 3 1018.1
20210924124704 59 147 0.0 1.0 0.00 0.00 0.00 3 1018.1
20210924123704 59 147 0.0 0.0 0.00 0.00 0.00 3 1018.1
20210924123204 59 147 0.0 0.0 0.00 0.00 0.00 3 1018.0
20210924122704 59 147 0.0 0.0 0.00 0.00 0.00 3 1018.0
20210924121705 59 147 0.0 0.0 0.00 0.00 0.00 3 1018.0
20210924121204 59 147 0.0 0.0 0.00 0.00 0.00 3 1018.0
20210924120204 59 147 0.0 0.0 0.00 0.00 0.00 3 1017.9
20210924115704 59 147 0.0 0.0 0.00 0.00 0.00 3 1017.8
20210924114705 59 147 0.0 1.0 0.00 0.00 0.00 3 1017.7
20210924114204 59 147 0.0 1.0 0.00 0.00 0.00 3 1017.6
20210924113704 59 147 0.0 0.0 0.00 0.00 0.00 3 1017.5
20210924113205 59 147 0.0 0.0 0.00 0.00 0.00 3 1017.6
20210924112204 60 147 0.0 0.0 0.00 0.00 0.00 3 1017.5
20210924111704 60 147 0.0 0.0 0.00 0.00 0.00 3 1017.4
20210924111205 60 147 0.0 0.0 0.00 0.00 0.00 3 1017.4
20210924110204 60 147 0.0 0.0 0.00 0.00 0.00 3 1017.3
20210924105704 60 147 0.0 0.0 0.00 0.00 0.00 3 1017.3
20210924104705 60 147 0.0 0.0 0.00 0.00 0.00 3 1017.2
20210924104204 60 147 0.0 0.0 0.00 0.00 0.00 3 1017.1
20210924103704 60 147 0.0 0.0 0.00 0.00 0.00 3 1017.1
20210924102704 60 147 0.0 0.0 0.00 0.00 0.00 3 1016.9
20210924102204 60 147 0.0 0.0 0.00 0.00 0.00 3 1016.9
20210924101704 60 147 0.0 0.0 0.00 0.00 0.00 3 1017.0
20210924101204 60 147 0.0 0.0 0.00 0.00 0.00 3 1017.0
20210924100204 61 147 0.0 0.0 0.00 0.00 0.00 3 1016.9
20210924095208 61 147 0.0 0.0 0.00 0.00 0.00 3 1016.8
20210924094705 61 147 0.0 0.0 0.00 0.00 0.00 3 1016.8
20210924094204 61 147 0.0 0.0 0.00 0.00 0.00 3 1016.8
20210924093704 61 147 0.0 0.0 0.00 0.00 0.00 3 1016.8
20210924084206 62 147 0.0 0.0 0.00 0.00 0.00 3 1016.6
20210924083705 62 147 0.0 0.0 0.00 0.00 0.00 3 1016.7
20210924082206 63 147 0.0 0.0 0.00 0.00 0.00 3 1016.8
20210924081705 63 147 0.0 0.0 0.00 0.00 0.00 3 1016.8
20210924081206 63 147 0.0 0.0 0.00 0.00 0.00 3 1016.9
20210924080705 63 147 0.0 0.0 0.00 0.00 0.00 3 1016.9
20210924075705 63 147 0.0 0.0 0.00 0.00 0.00 4 1016.9
20210924075206 63 147 0.0 0.0 0.00 0.00 0.00 6 1016.9
20210924073205 63 147 0.0 0.0 0.00 0.00 0.00 10 1016.9
20210924072705 64 147 0.0 1.0 0.00 0.00 0.00 9 1016.9
20210924071705 64 147 0.0 0.0 0.00 0.00 0.00 14 1016.9
20210924071205 64 147 0.0 0.0 0.00 0.00 0.00 16 1016.8
20210924070205 64 147 0.0 1.0 0.00 0.00 0.00 20 1016.8
20210924065205 64 147 0.0 1.0 0.00 0.00 0.00 25 1016.8
20210924064705 65 147 0.0 1.0 0.00 0.00 0.00 28 1016.8
20210924064205 65 147 0.0 1.0 0.00 0.00 0.00 30 1016.8
20210924063705 65 147 0.0 1.0 0.00 0.00 0.00 34 1016.8
20210924063205 65 147 0.0 0.0 0.00 0.00 0.00 36 1016.7
20210924062706 65 147 0.0 0.0 0.00 0.00 0.00 35 1016.7
20210924062205 65 147 0.0 0.0 0.00 0.00 0.00 35 1016.6
20210924061705 66 147 0.0 0.0 0.00 0.00 0.00 34 1016.7
20210924061206 66 147 0.0 0.0 0.00 0.00 0.00 36 1016.7
20210924060706 66 147 0.0 0.0 0.00 0.00 0.00 38 1016.7
20210924055706 66 147 0.0 0.0 0.00 0.00 0.00 38 1016.7
20210924054206 66 147 0.0 0.0 0.00 0.00 0.00 45 1016.6
20210924053706 67 147 0.0 0.0 0.00 0.00 0.00 45 1016.6
20210924052705 67 147 0.0 0.0 0.00 0.00 0.00 49 1016.7
20210924052205 67 147 0.0 0.0 0.00 0.00 0.00 50 1016.5
20210924051705 67 146 0.0 0.0 0.00 0.00 0.00 49 1016.5
20210924051206 67 147 0.0 0.0 0.00 0.00 0.00 53 1016.5
20210924050706 68 147 0.0 1.0 0.00 0.00 0.00 52 1016.6
20210924050206 68 146 0.0 1.0 0.00 0.00 0.00 53 1016.6
20210924045705 68 147 0.0 2.0 0.00 0.00 0.00 54 1016.6
20210924045206 69 165 1.0 3.0 0.00 0.00 0.00 56 1016.5
20210924044705 69 165 1.0 3.0 0.00 0.00 0.00 56 1016.5
20210924044206 69 167 1.0 3.0 0.00 0.00 0.00 57 1016.5
20210924043707 69 163 1.0 3.0 0.00 0.00 0.00 58 1016.5